createdAt,value
2023-03-16T00:01:23.323Z,93.40
2023-03-16T00:03:51.151Z,93.60
2023-03-16T00:06:18.755Z,93.60
2023-03-16T00:08:48.528Z,93.90
2023-03-16T00:11:16.390Z,93.80
2023-03-16T00:13:44.086Z,94.00
2023-03-16T00:16:13.895Z,94.20
2023-03-16T00:18:41.593Z,94.40
2023-03-16T00:21:09.205Z,94.20
2023-03-16T00:23:39.619Z,94.00
2023-03-16T00:26:07.308Z,93.80
2023-03-16T00:28:34.886Z,93.40
2023-03-16T00:31:04.656Z,93.50
2023-03-16T00:33:32.464Z,93.50
2023-03-16T00:36:00.660Z,93.40
2023-03-16T00:38:28.408Z,93.10
2023-03-16T00:40:55.915Z,92.90
2023-03-16T00:43:23.649Z,92.70
2023-03-16T00:45:53.360Z,92.60
2023-03-16T00:48:22.012Z,92.90
2023-03-16T00:50:51.581Z,92.80
2023-03-16T00:53:22.049Z,92.80
2023-03-16T00:55:52.368Z,92.50
2023-03-16T00:58:20.023Z,92.50
2023-03-16T01:00:49.763Z,92.20
2023-03-16T01:03:17.529Z,92.10
2023-03-16T01:05:45.755Z,91.80
2023-03-16T01:08:17.665Z,91.60
2023-03-16T01:10:45.483Z,91.50
2023-03-16T01:13:13.089Z,91.10
2023-03-16T01:15:41.850Z,90.60
2023-03-16T01:18:09.726Z,91.00
2023-03-16T01:20:37.254Z,90.90
2023-03-16T01:23:06.116Z,90.70
2023-03-16T01:25:33.879Z,90.40
2023-03-16T01:28:01.509Z,90.20
2023-03-16T01:30:31.311Z,90.10
2023-03-16T01:32:59.187Z,89.90
2023-03-16T01:35:26.799Z,89.70
2023-03-16T01:37:56.918Z,90.20
2023-03-16T01:40:24.660Z,90.00
2023-03-16T01:42:52.258Z,89.40
2023-03-16T01:45:22.054Z,88.40
2023-03-16T01:47:49.781Z,87.10
2023-03-16T01:50:17.328Z,86.90
2023-03-16T01:52:47.199Z,86.20
2023-03-16T01:55:15.029Z,86.40
2023-03-16T01:57:42.787Z,86.00
2023-03-16T02:00:12.695Z,86.20
2023-03-16T02:02:40.237Z,85.00
2023-03-16T02:05:07.990Z,85.00
2023-03-16T02:07:36.847Z,85.10
2023-03-16T02:10:04.482Z,85.10
2023-03-16T02:12:31.981Z,84.80
2023-03-16T02:14:59.666Z,84.10
2023-03-16T02:17:27.254Z,83.50
2023-03-16T02:19:54.844Z,83.10
2023-03-16T02:22:24.630Z,82.20
2023-03-16T02:24:52.608Z,81.90
2023-03-16T02:27:20.748Z,81.30
2023-03-16T02:29:50.562Z,80.70
2023-03-16T02:32:18.127Z,80.60
2023-03-16T02:34:45.801Z,79.80
2023-03-16T02:37:15.515Z,79.80
2023-03-16T02:39:43.272Z,79.40
2023-03-16T02:42:11.443Z,79.10
2023-03-16T02:44:39.314Z,79.80
2023-03-16T02:47:06.887Z,80.10
2023-03-16T02:49:34.492Z,80.10
2023-03-16T02:52:04.486Z,79.20
2023-03-16T02:54:32.521Z,78.50
2023-03-16T02:57:00.065Z,78.40
2023-03-16T02:59:29.828Z,78.30
2023-03-16T03:01:57.414Z,78.20
2023-03-16T03:04:24.991Z,77.90
2023-03-16T03:06:55.011Z,78.30
2023-03-16T03:09:22.667Z,77.60
2023-03-16T03:11:50.264Z,76.70
2023-03-16T03:14:18.924Z,76.10
2023-03-16T03:16:46.880Z,75.80
2023-03-16T03:19:14.900Z,75.40
2023-03-16T03:21:44.791Z,75.10
2023-03-16T03:24:12.535Z,75.00
2023-03-16T03:26:40.073Z,74.70
2023-03-16T03:29:09.828Z,74.20
2023-03-16T03:31:37.436Z,74.50
2023-03-16T03:34:05.029Z,73.30
2023-03-16T03:36:34.784Z,72.20
2023-03-16T03:39:02.468Z,72.00
2023-03-16T03:41:30.157Z,71.50
2023-03-16T03:43:59.859Z,70.90
2023-03-16T03:46:27.632Z,71.20
2023-03-16T03:48:55.293Z,70.70
2023-03-16T03:51:25.000Z,71.10
2023-03-16T03:53:52.663Z,71.10
2023-03-16T03:56:21.328Z,71.50
2023-03-16T03:58:51.148Z,71.10
2023-03-16T04:01:18.753Z,70.20
2023-03-16T04:03:46.430Z,69.50
2023-03-16T04:06:16.186Z,69.50
2023-03-16T04:08:43.962Z,69.30
2023-03-16T04:11:11.472Z,68.50
2023-03-16T04:13:41.254Z,68.30
2023-03-16T04:16:08.995Z,68.30
2023-03-16T04:18:56.780Z,69.00
2023-03-16T04:21:24.703Z,68.80
2023-03-16T04:23:52.367Z,67.90
2023-03-16T04:26:22.312Z,67.60
2023-03-16T04:28:49.977Z,67.60
2023-03-16T04:31:17.580Z,67.80
2023-03-16T04:33:47.482Z,67.40
2023-03-16T04:36:15.258Z,67.70
2023-03-16T04:38:42.862Z,67.10
2023-03-16T04:41:12.808Z,66.40
2023-03-16T04:43:40.477Z,65.60
2023-03-16T04:46:08.150Z,66.10
2023-03-16T04:48:38.194Z,65.80
2023-03-16T04:51:05.934Z,66.50
2023-03-16T04:53:33.743Z,66.00
2023-03-16T04:56:01.808Z,66.60
2023-03-16T04:58:29.527Z,66.80
2023-03-16T05:00:57.084Z,66.20
2023-03-16T05:03:29.994Z,65.50
2023-03-16T05:05:57.665Z,65.00
2023-03-16T05:08:25.384Z,64.60
2023-03-16T05:10:55.382Z,64.20
2023-03-16T05:13:23.631Z,64.00
2023-03-16T05:15:51.200Z,64.40
2023-03-16T05:18:18.903Z,64.70
2023-03-16T05:20:46.533Z,64.20
2023-03-16T05:23:15.968Z,63.90
2023-03-16T05:25:45.012Z,64.20
2023-03-16T05:28:14.464Z,64.40
2023-03-16T05:30:42.055Z,64.20
2023-03-16T05:33:10.884Z,63.50
2023-03-16T05:35:38.824Z,63.20
2023-03-16T05:38:06.575Z,63.70
2023-03-16T05:40:36.991Z,65.60
2023-03-16T05:43:04.882Z,66.20
2023-03-16T05:45:32.410Z,66.10
2023-03-16T05:48:00.161Z,66.40
2023-03-16T05:50:28.199Z,65.70
2023-03-16T05:52:55.845Z,65.50
2023-03-16T05:55:25.811Z,65.00
2023-03-16T05:57:53.467Z,64.50
2023-03-16T06:00:21.070Z,63.40
2023-03-16T06:02:48.771Z,65.00
2023-03-16T06:05:16.440Z,64.40
2023-03-16T06:07:43.965Z,64.40
2023-03-16T06:10:14.037Z,64.40
2023-03-16T06:12:41.827Z,64.50
2023-03-16T06:15:09.568Z,64.40
2023-03-16T06:17:39.509Z,64.20
2023-03-16T06:20:07.438Z,62.80
2023-03-16T06:22:35.018Z,64.00
2023-03-16T06:25:05.010Z,64.30
2023-03-16T06:27:34.085Z,63.80
2023-03-16T06:30:01.686Z,63.20
2023-03-16T06:32:31.627Z,62.30
2023-03-16T06:35:01.706Z,61.70
2023-03-16T06:37:29.592Z,60.80
2023-03-16T06:39:57.140Z,61.00
2023-03-16T06:42:27.434Z,61.20
2023-03-16T06:44:55.202Z,61.40
2023-03-16T06:47:22.833Z,60.90
2023-03-16T06:49:52.915Z,60.20
2023-03-16T06:52:20.485Z,60.30
2023-03-16T06:54:48.076Z,59.40
2023-03-16T06:57:18.331Z,59.10
2023-03-16T06:59:45.938Z,59.30
2023-03-16T07:02:13.623Z,59.40
2023-03-16T07:04:43.601Z,59.80
2023-03-16T07:07:11.158Z,59.40
2023-03-16T07:09:41.135Z,58.20
2023-03-16T07:12:12.122Z,58.20
2023-03-16T07:14:39.712Z,58.30
2023-03-16T07:17:07.288Z,57.20
2023-03-16T07:19:37.707Z,57.10
2023-03-16T07:22:05.289Z,57.40
2023-03-16T07:24:32.925Z,57.50
2023-03-16T07:27:02.485Z,57.70
2023-03-16T07:29:30.012Z,57.00
2023-03-16T07:31:57.666Z,57.30
2023-03-16T07:34:28.034Z,57.60
2023-03-16T07:36:55.599Z,56.40
2023-03-16T07:39:23.155Z,56.60
2023-03-16T07:41:53.319Z,56.60
2023-03-16T07:44:20.934Z,56.90
2023-03-16T07:46:48.523Z,56.90
2023-03-16T07:49:18.309Z,56.90
2023-03-16T07:51:45.882Z,56.20
2023-03-16T07:54:13.544Z,56.60
2023-03-16T07:56:49.217Z,56.90
2023-03-16T07:59:18.291Z,56.90
2023-03-16T08:01:49.595Z,57.10
2023-03-16T08:04:17.207Z,56.90
2023-03-16T08:06:44.794Z,56.30
2023-03-16T08:09:14.999Z,55.90
2023-03-16T08:11:42.583Z,56.60
2023-03-16T08:14:10.180Z,56.50
2023-03-16T08:16:40.146Z,56.80
2023-03-16T08:19:07.687Z,54.90
2023-03-16T08:21:45.455Z,55.60
2023-03-16T08:24:23.477Z,55.80
2023-03-16T08:26:51.061Z,55.70
2023-03-16T08:29:18.657Z,55.30
2023-03-16T08:31:49.102Z,55.40
2023-03-16T08:34:16.714Z,55.90
2023-03-16T08:36:45.472Z,56.00
2023-03-16T08:39:15.441Z,56.10
2023-03-16T08:41:42.997Z,55.70
2023-03-16T08:44:10.588Z,55.00
2023-03-16T08:46:40.630Z,55.10
2023-03-16T08:49:08.226Z,54.80
2023-03-16T08:51:35.823Z,55.00
2023-03-16T08:54:05.557Z,55.20
2023-03-16T08:56:33.096Z,55.20
2023-03-16T08:59:00.711Z,55.10
2023-03-16T09:01:28.805Z,55.40
2023-03-16T09:03:56.416Z,55.20
2023-03-16T09:06:23.903Z,54.20
2023-03-16T09:08:54.215Z,54.10
2023-03-16T09:11:21.825Z,54.40
2023-03-16T09:13:51.158Z,54.50
2023-03-16T09:16:22.795Z,54.40
2023-03-16T09:18:50.432Z,53.70
2023-03-16T09:21:18.053Z,53.80
2023-03-16T09:23:46.789Z,53.70
2023-03-16T09:26:14.717Z,53.90
2023-03-16T09:28:42.412Z,53.40
2023-03-16T09:31:12.360Z,53.30
2023-03-16T09:33:39.969Z,53.60
2023-03-16T09:36:07.561Z,54.30
2023-03-16T09:38:35.973Z,54.30
2023-03-16T09:41:03.523Z,54.10
2023-03-16T09:43:31.286Z,54.30
2023-03-16T09:45:59.231Z,54.40
2023-03-16T09:48:26.832Z,53.40
2023-03-16T09:50:54.820Z,53.40
2023-03-16T09:53:25.302Z,52.60
2023-03-16T09:55:54.750Z,53.00
2023-03-16T09:58:22.562Z,54.10
2023-03-16T10:00:52.532Z,54.70
2023-03-16T10:03:20.088Z,54.90
2023-03-16T10:05:47.643Z,55.80
2023-03-16T10:08:18.381Z,55.10
2023-03-16T10:10:46.003Z,56.10
2023-03-16T10:13:13.573Z,56.10
2023-03-16T10:15:43.793Z,56.60
2023-03-16T10:18:13.336Z,58.00
2023-03-16T10:20:41.255Z,57.00
2023-03-16T10:23:09.177Z,56.90
2023-03-16T10:25:36.706Z,57.10
2023-03-16T10:28:04.381Z,57.00
2023-03-16T10:30:34.154Z,57.20
2023-03-16T10:33:01.806Z,57.80
2023-03-16T10:35:29.763Z,56.20
2023-03-16T10:38:00.010Z,56.70
2023-03-16T10:40:27.905Z,56.90
2023-03-16T10:42:55.760Z,57.20
2023-03-16T10:45:25.627Z,57.90
2023-03-16T10:47:53.181Z,58.60
2023-03-16T10:50:21.148Z,59.10
2023-03-16T10:52:51.118Z,59.90
2023-03-16T10:55:18.722Z,59.90
2023-03-16T10:57:46.408Z,63.60
2023-03-16T11:00:16.212Z,62.60
2023-03-16T11:02:43.761Z,64.00
2023-03-16T11:05:11.747Z,62.70
2023-03-16T11:07:39.578Z,62.20
2023-03-16T11:10:07.187Z,62.60
2023-03-16T11:12:34.784Z,63.10
2023-03-16T11:15:07.507Z,63.80
2023-03-16T11:17:36.919Z,64.70
2023-03-16T11:20:04.507Z,65.90
2023-03-16T11:22:34.450Z,65.80
2023-03-16T11:25:02.322Z,66.90
2023-03-16T11:27:29.912Z,67.60
2023-03-16T11:29:59.769Z,69.10
2023-03-16T11:32:27.443Z,66.60
2023-03-16T11:34:55.058Z,67.20
2023-03-16T11:37:24.502Z,66.20
2023-03-16T11:39:52.270Z,67.30
2023-03-16T11:42:19.834Z,67.40
2023-03-16T11:44:50.687Z,67.60
2023-03-16T11:47:19.042Z,67.50
2023-03-16T11:49:46.631Z,68.40
2023-03-16T11:52:16.559Z,68.50
2023-03-16T11:54:44.285Z,68.80
2023-03-16T11:57:14.648Z,70.40
2023-03-16T11:59:51.829Z,70.70
2023-03-16T12:07:46.994Z,70.00
2023-03-16T12:10:20.457Z,69.60
2023-03-16T12:15:38.050Z,70.30
2023-03-16T12:20:58.015Z,71.40
2023-03-16T12:23:29.068Z,70.80
2023-03-16T12:34:22.785Z,71.40
2023-03-16T12:36:59.008Z,70.20
2023-03-16T12:39:38.709Z,69.80
2023-03-16T12:44:48.343Z,71.00
2023-03-16T12:47:20.173Z,72.00
2023-03-16T12:49:54.491Z,71.90
2023-03-16T12:52:36.385Z,71.50
2023-03-16T12:55:04.972Z,71.00
2023-03-16T12:57:35.885Z,71.50
2023-03-16T13:00:05.352Z,72.90
2023-03-16T13:02:33.330Z,72.60
2023-03-16T13:05:06.063Z,73.00
2023-03-16T13:07:33.842Z,72.80
2023-03-16T13:10:04.227Z,72.90
2023-03-16T13:12:40.722Z,73.00
2023-03-16T13:17:59.850Z,73.80
2023-03-16T13:20:31.076Z,74.20
2023-03-16T13:23:02.170Z,74.30
2023-03-16T13:25:32.469Z,74.70
2023-03-16T13:28:00.002Z,75.10
2023-03-16T13:30:31.575Z,75.00
2023-03-16T13:32:59.407Z,75.30
2023-03-16T13:35:26.993Z,75.10
2023-03-16T13:37:54.836Z,74.70
2023-03-16T13:40:22.527Z,75.10
2023-03-16T13:42:50.066Z,74.10
2023-03-16T13:45:20.256Z,73.90
2023-03-16T13:47:47.908Z,73.90
2023-03-16T13:50:15.486Z,74.50
2023-03-16T13:52:45.626Z,73.60
2023-03-16T13:55:13.218Z,74.10
2023-03-16T13:57:40.857Z,74.50
2023-03-16T14:00:11.221Z,75.20
2023-03-16T14:02:38.832Z,74.80
2023-03-16T14:05:06.403Z,74.70
2023-03-16T14:07:36.917Z,74.40
2023-03-16T14:10:04.625Z,74.70
2023-03-16T14:12:32.465Z,75.00
2023-03-16T14:15:02.040Z,75.20
2023-03-16T14:17:29.671Z,75.60
2023-03-16T14:19:57.231Z,76.20
2023-03-16T14:22:25.136Z,75.80
2023-03-16T14:24:52.809Z,76.10
2023-03-16T14:27:20.376Z,76.40
2023-03-16T14:29:50.567Z,76.40
2023-03-16T14:32:18.336Z,76.60
2023-03-16T14:34:46.033Z,77.20
2023-03-16T14:37:13.977Z,76.70
2023-03-16T14:39:41.822Z,76.80
2023-03-16T14:42:09.367Z,77.40
2023-03-16T14:44:37.806Z,77.10
2023-03-16T14:47:05.596Z,77.20
2023-03-16T14:49:33.607Z,77.70
2023-03-16T14:52:01.622Z,78.40
2023-03-16T14:54:29.369Z,77.60
2023-03-16T14:56:56.868Z,78.00
2023-03-16T14:59:27.013Z,77.80
2023-03-16T15:01:54.965Z,78.50
2023-03-16T15:04:22.643Z,78.00
2023-03-16T15:07:12.840Z,78.40
2023-03-16T15:09:40.749Z,78.50
2023-03-16T15:12:08.351Z,78.60
2023-03-16T15:14:39.277Z,78.80
2023-03-16T15:17:06.796Z,78.70
2023-03-16T15:19:34.290Z,78.50
2023-03-16T15:22:02.168Z,78.70
2023-03-16T15:24:29.788Z,79.00
2023-03-16T15:27:00.324Z,78.90
2023-03-16T15:29:30.881Z,79.10
2023-03-16T15:31:58.470Z,80.30
2023-03-16T15:34:26.791Z,79.60
2023-03-16T15:36:56.902Z,79.50
2023-03-16T15:39:26.731Z,79.60
2023-03-16T15:41:54.467Z,79.60
2023-03-16T15:44:22.292Z,79.80
2023-03-16T15:46:52.283Z,79.40
2023-03-16T15:49:20.381Z,80.70
2023-03-16T15:51:47.953Z,80.30
2023-03-16T15:54:17.710Z,80.30
2023-03-16T15:56:53.737Z,80.40
2023-03-16T15:59:24.308Z,80.40
2023-03-16T16:01:52.128Z,81.10
2023-03-16T16:04:19.972Z,81.30
2023-03-16T16:06:48.857Z,81.30
2023-03-16T16:09:16.669Z,81.30
2023-03-16T16:11:44.227Z,80.80
2023-03-16T16:14:13.988Z,81.30
2023-03-16T16:16:41.609Z,81.00
2023-03-16T16:19:09.173Z,81.50
2023-03-16T16:21:38.948Z,81.70
2023-03-16T16:24:06.609Z,81.90
2023-03-16T16:26:56.313Z,82.00
2023-03-16T16:29:24.212Z,82.50
2023-03-16T16:31:52.120Z,82.70
2023-03-16T16:34:22.704Z,82.70
2023-03-16T16:36:53.528Z,82.70
2023-03-16T16:39:21.144Z,82.50
2023-03-16T16:41:48.716Z,82.40
2023-03-16T16:44:18.705Z,82.30
2023-03-16T16:46:46.324Z,83.20
2023-03-16T16:49:13.916Z,83.40
2023-03-16T16:51:43.808Z,83.60
2023-03-16T16:54:12.981Z,83.70
2023-03-16T16:56:43.358Z,84.30
2023-03-16T16:59:13.381Z,84.50
2023-03-16T17:01:41.227Z,84.20
2023-03-16T17:04:08.837Z,84.70
2023-03-16T17:06:38.747Z,84.40
2023-03-16T17:09:06.426Z,84.30
2023-03-16T17:11:33.946Z,84.70
2023-03-16T17:14:03.829Z,84.90
2023-03-16T17:16:31.593Z,84.80
2023-03-16T17:18:59.191Z,84.80
2023-03-16T17:21:28.950Z,85.10
2023-03-16T17:23:56.600Z,85.30
2023-03-16T17:26:24.146Z,84.90
2023-03-16T17:28:54.069Z,85.20
2023-03-16T17:31:21.707Z,84.90
2023-03-16T17:33:49.258Z,84.80
2023-03-16T17:36:18.962Z,85.10
2023-03-16T17:38:46.538Z,85.70
2023-03-16T17:41:14.101Z,86.00
2023-03-16T17:43:41.782Z,86.20
2023-03-16T17:46:09.455Z,85.90
2023-03-16T17:48:37.122Z,86.00
2023-03-16T17:51:05.835Z,85.60
2023-03-16T17:53:33.415Z,85.30
2023-03-16T17:56:01.004Z,85.10
2023-03-16T17:58:30.767Z,85.50
2023-03-16T18:00:58.306Z,85.90
2023-03-16T18:03:29.349Z,86.30
2023-03-16T18:06:01.578Z,86.60
2023-03-16T18:08:33.622Z,86.70
2023-03-16T18:11:05.012Z,87.10
2023-03-16T18:13:33.588Z,87.20
2023-03-16T18:16:02.387Z,86.90
2023-03-16T18:18:32.996Z,87.30
2023-03-16T18:21:00.651Z,87.00
2023-03-16T18:23:29.205Z,87.70
2023-03-16T18:25:58.869Z,87.90
2023-03-16T18:28:26.489Z,88.10
2023-03-16T18:30:54.131Z,88.10
2023-03-16T18:33:24.048Z,88.70
2023-03-16T18:35:51.649Z,88.70
2023-03-16T18:38:19.286Z,88.90
2023-03-16T18:40:49.031Z,89.10
2023-03-16T18:43:16.591Z,88.80
2023-03-16T18:45:44.746Z,88.60
2023-03-16T18:48:14.633Z,88.90
2023-03-16T18:50:42.325Z,89.00
2023-03-16T18:53:10.478Z,89.20
2023-03-16T18:55:40.337Z,89.30
2023-03-16T18:58:07.868Z,89.30
2023-03-16T19:00:37.630Z,89.30
2023-03-16T19:03:07.573Z,89.50
2023-03-16T19:05:35.138Z,89.30
2023-03-16T19:08:02.710Z,88.30
2023-03-16T19:10:31.668Z,87.70
2023-03-16T19:12:59.297Z,87.90
2023-03-16T19:15:26.867Z,88.00
2023-03-16T19:17:56.712Z,87.70
2023-03-16T19:20:24.272Z,87.30
2023-03-16T19:22:51.842Z,86.60
2023-03-16T19:25:21.357Z,86.70
2023-03-16T19:27:48.959Z,86.90
2023-03-16T19:30:19.456Z,87.50
2023-03-16T19:32:49.605Z,88.00
2023-03-16T19:35:17.232Z,87.10
2023-03-16T19:37:44.800Z,86.80
2023-03-16T19:40:14.540Z,86.80
2023-03-16T19:42:43.155Z,86.90
2023-03-16T19:45:10.704Z,86.80
2023-03-16T19:47:40.504Z,87.40
2023-03-16T19:50:08.075Z,87.50
2023-03-16T19:52:35.643Z,87.50
2023-03-16T19:55:05.392Z,87.40
2023-03-16T19:57:33.034Z,87.50
2023-03-16T20:00:00.613Z,87.50
2023-03-16T20:02:30.427Z,87.50
2023-03-16T20:04:58.006Z,87.90
2023-03-16T20:07:25.578Z,88.00
2023-03-16T20:09:55.392Z,88.30
2023-03-16T20:12:23.041Z,87.80
2023-03-16T20:14:50.615Z,87.70
2023-03-16T20:17:18.892Z,87.70
2023-03-16T20:19:47.087Z,87.70
2023-03-16T20:22:31.456Z,87.60
2023-03-16T20:24:59.375Z,87.80
2023-03-16T20:27:27.070Z,87.80
2023-03-16T20:32:35.502Z,87.90
2023-03-16T20:35:12.628Z,88.00
2023-03-16T20:37:40.589Z,87.60
2023-03-16T20:40:12.401Z,87.80
2023-03-16T20:42:43.314Z,88.40
2023-03-16T20:45:15.267Z,88.70
2023-03-16T20:47:48.100Z,88.70
2023-03-16T20:50:16.424Z,88.80
2023-03-16T20:52:44.056Z,88.90
2023-03-16T20:55:13.911Z,88.00
2023-03-16T20:57:43.285Z,88.30
2023-03-16T21:00:10.859Z,88.60
2023-03-16T21:02:40.785Z,88.90
2023-03-16T21:05:08.556Z,89.00
2023-03-16T21:07:41.604Z,89.20
2023-03-16T21:10:11.499Z,89.00
2023-03-16T21:12:39.060Z,89.60
2023-03-16T21:15:06.585Z,89.70
2023-03-16T21:17:37.539Z,89.40
2023-03-16T21:20:05.124Z,89.60
2023-03-16T21:22:33.104Z,89.30
2023-03-16T21:25:02.990Z,89.40
2023-03-16T21:27:30.820Z,89.30
2023-03-16T21:29:58.848Z,89.30
2023-03-16T21:32:29.856Z,89.70
2023-03-16T21:34:58.162Z,90.10
2023-03-16T21:37:28.526Z,90.40
2023-03-16T21:40:06.288Z,90.60
2023-03-16T21:42:37.427Z,90.90
2023-03-16T21:45:08.200Z,91.00
2023-03-16T21:47:35.929Z,91.20
2023-03-16T21:50:06.544Z,91.20
2023-03-16T21:52:37.321Z,91.20
2023-03-16T21:55:04.886Z,91.30
2023-03-16T21:57:32.989Z,91.40
2023-03-16T22:00:03.032Z,91.70
2023-03-16T22:02:33.775Z,91.80
2023-03-16T22:05:12.409Z,91.90
2023-03-16T22:07:40.189Z,92.10
2023-03-16T22:10:08.497Z,92.10
2023-03-16T22:12:39.564Z,92.00
2023-03-16T22:15:07.348Z,91.90
2023-03-16T22:17:38.823Z,91.90
2023-03-16T22:20:08.573Z,91.80
2023-03-16T22:22:42.727Z,92.00
2023-03-16T22:25:12.721Z,91.80
2023-03-16T22:27:42.688Z,91.90
2023-03-16T22:30:10.951Z,92.10
2023-03-16T22:32:41.751Z,92.20
2023-03-16T22:35:11.210Z,92.30
2023-03-16T22:37:39.822Z,92.50
2023-03-16T22:40:15.327Z,92.50
2023-03-16T22:42:43.790Z,92.50
2023-03-16T22:45:13.220Z,92.50
2023-03-16T22:47:57.442Z,92.50
2023-03-16T22:50:29.624Z,92.50
2023-03-16T22:52:57.365Z,92.50
2023-03-16T22:55:29.278Z,92.40
2023-03-16T22:57:57.551Z,92.40
2023-03-16T23:00:26.116Z,92.20
2023-03-16T23:02:54.584Z,92.30
2023-03-16T23:05:26.482Z,92.50
2023-03-16T23:07:57.746Z,92.70
2023-03-16T23:10:51.493Z,92.80
2023-03-16T23:13:19.653Z,92.60
2023-03-16T23:15:48.677Z,92.50
2023-03-16T23:18:24.438Z,92.50
2023-03-16T23:20:52.366Z,92.70
2023-03-16T23:23:23.297Z,92.80
2023-03-16T23:25:54.443Z,93.10
2023-03-16T23:28:22.044Z,92.90
2023-03-16T23:30:52.591Z,93.10
2023-03-16T23:33:25.157Z,93.10
2023-03-16T23:35:56.091Z,93.30
2023-03-16T23:38:24.339Z,93.30
2023-03-16T23:40:54.084Z,93.10
2023-03-16T23:43:21.748Z,93.00
2023-03-16T23:45:49.379Z,93.10
2023-03-16T23:48:19.814Z,93.30
2023-03-16T23:50:47.600Z,93.60
2023-03-16T23:53:15.252Z,94.10
2023-03-16T23:55:45.232Z,94.00
2023-03-16T23:58:12.931Z,94.40
